sensor_id;sensor_type;location;lat;lon;timestamp;pressure;altitude;pressure_sealevel;temperature;humidity
8941;BME280;4505;43.406;23.226;2022-12-13T00:01:12;99656.53;;;0.43;100.00
8941;BME280;4505;43.406;23.226;2022-12-13T00:03:40;99663.19;;;0.46;100.00
8941;BME280;4505;43.406;23.226;2022-12-13T00:06:08;99666.50;;;0.40;100.00
8941;BME280;4505;43.406;23.226;2022-12-13T00:08:35;99679.91;;;0.37;100.00
8941;BME280;4505;43.406;23.226;2022-12-13T00:11:03;99686.09;;;0.36;100.00
8941;BME280;4505;43.406;23.226;2022-12-13T00:13:30;99681.34;;;0.39;100.00
8941;BME280;4505;43.406;23.226;2022-12-13T00:15:59;99673.38;;;0.33;100.00
8941;BME280;4505;43.406;23.226;2022-12-13T00:18:26;99677.81;;;0.32;100.00
8941;BME280;4505;43.406;23.226;2022-12-13T00:20:53;99672.56;;;0.32;100.00
8941;BME280;4505;43.406;23.226;2022-12-13T00:23:19;99673.72;;;0.30;100.00
8941;BME280;4505;43.406;23.226;2022-12-13T00:25:46;99687.25;;;0.33;100.00
8941;BME280;4505;43.406;23.226;2022-12-13T00:28:13;99689.50;;;0.44;100.00
8941;BME280;4505;43.406;23.226;2022-12-13T00:30:40;99686.91;;;0.36;100.00
8941;BME280;4505;43.406;23.226;2022-12-13T00:33:08;99687.25;;;0.33;100.00
8941;BME280;4505;43.406;23.226;2022-12-13T00:35:38;99689.88;;;0.33;100.00
8941;BME280;4505;43.406;23.226;2022-12-13T00:38:05;99690.38;;;0.29;100.00
8941;BME280;4505;43.406;23.226;2022-12-13T00:40:31;99688.22;;;0.40;100.00
8941;BME280;4505;43.406;23.226;2022-12-13T00:42:58;99691.66;;;0.33;100.00
8941;BME280;4505;43.406;23.226;2022-12-13T00:45:24;99685.31;;;0.27;100.00
8941;BME280;4505;43.406;23.226;2022-12-13T00:47:51;99688.50;;;0.45;100.00
8941;BME280;4505;43.406;23.226;2022-12-13T00:50:19;99688.56;;;0.21;100.00
8941;BME280;4505;43.406;23.226;2022-12-13T00:52:46;99688.91;;;0.26;100.00
8941;BME280;4505;43.406;23.226;2022-12-13T00:55:12;99687.88;;;0.43;100.00
8941;BME280;4505;43.406;23.226;2022-12-13T00:57:39;99682.38;;;0.30;100.00
8941;BME280;4505;43.406;23.226;2022-12-13T01:00:06;99686.38;;;0.49;100.00
8941;BME280;4505;43.406;23.226;2022-12-13T01:02:33;99686.03;;;0.52;100.00
8941;BME280;4505;43.406;23.226;2022-12-13T01:04:59;99676.63;;;0.35;100.00
8941;BME280;4505;43.406;23.226;2022-12-13T01:07:27;99681.50;;;0.38;100.00
8941;BME280;4505;43.406;23.226;2022-12-13T01:09:56;99688.53;;;0.37;100.00
8941;BME280;4505;43.406;23.226;2022-12-13T01:12:23;99681.91;;;0.19;100.00
8941;BME280;4505;43.406;23.226;2022-12-13T01:14:49;99690.06;;;0.16;100.00
8941;BME280;4505;43.406;23.226;2022-12-13T01:17:16;99690.75;;;0.10;100.00
8941;BME280;4505;43.406;23.226;2022-12-13T01:19:42;99686.97;;;0.12;100.00
8941;BME280;4505;43.406;23.226;2022-12-13T01:22:09;99697.44;;;0.12;100.00
8941;BME280;4505;43.406;23.226;2022-12-13T01:24:37;99698.75;;;0.08;100.00
8941;BME280;4505;43.406;23.226;2022-12-13T01:27:04;99708.69;;;0.13;100.00
8941;BME280;4505;43.406;23.226;2022-12-13T01:29:30;99687.50;;;0.08;100.00
8941;BME280;4505;43.406;23.226;2022-12-13T01:31:57;99699.06;;;0.05;100.00
8941;BME280;4505;43.406;23.226;2022-12-13T01:34:23;99693.97;;;0.20;100.00
8941;BME280;4505;43.406;23.226;2022-12-13T01:36:51;99696.06;;;0.40;100.00
8941;BME280;4505;43.406;23.226;2022-12-13T01:39:18;99694.22;;;0.41;100.00
8941;BME280;4505;43.406;23.226;2022-12-13T01:41:48;99692.16;;;0.28;100.00
8941;BME280;4505;43.406;23.226;2022-12-13T01:46:59;99690.13;;;-0.01;100.00
8941;BME280;4505;43.406;23.226;2022-12-13T01:49:37;99689.97;;;-0.07;100.00
8941;BME280;4505;43.406;23.226;2022-12-13T01:52:16;99685.84;;;-0.02;100.00
8941;BME280;4505;43.406;23.226;2022-12-13T01:54:43;99692.22;;;0.04;100.00
8941;BME280;4505;43.406;23.226;2022-12-13T01:57:14;99697.63;;;-0.06;100.00
8941;BME280;4505;43.406;23.226;2022-12-13T01:59:40;99698.91;;;-0.10;100.00
8941;BME280;4505;43.406;23.226;2022-12-13T02:02:08;99704.66;;;-0.22;100.00
8941;BME280;4505;43.406;23.226;2022-12-13T02:04:38;99714.13;;;-0.29;100.00
8941;BME280;4505;43.406;23.226;2022-12-13T02:07:05;99709.25;;;-0.32;100.00
8941;BME280;4505;43.406;23.226;2022-12-13T02:09:33;99708.41;;;-0.41;100.00
8941;BME280;4505;43.406;23.226;2022-12-13T02:12:00;99717.19;;;-0.42;100.00
8941;BME280;4505;43.406;23.226;2022-12-13T02:14:29;99713.63;;;-0.49;100.00
8941;BME280;4505;43.406;23.226;2022-12-13T02:17:11;99711.53;;;-0.45;100.00
8941;BME280;4505;43.406;23.226;2022-12-13T02:19:59;99717.53;;;-0.45;100.00
8941;BME280;4505;43.406;23.226;2022-12-13T02:22:37;99711.69;;;-0.47;100.00
8941;BME280;4505;43.406;23.226;2022-12-13T02:25:08;99712.81;;;-0.49;100.00
8941;BME280;4505;43.406;23.226;2022-12-13T02:27:48;99713.81;;;-0.50;100.00
8941;BME280;4505;43.406;23.226;2022-12-13T02:30:24;99717.38;;;-0.51;100.00
8941;BME280;4505;43.406;23.226;2022-12-13T02:35:43;99712.47;;;-0.54;100.00
8941;BME280;4505;43.406;23.226;2022-12-13T02:38:16;99713.47;;;-0.55;100.00
8941;BME280;4505;43.406;23.226;2022-12-13T02:40:48;99712.47;;;-0.54;100.00
8941;BME280;4505;43.406;23.226;2022-12-13T02:43:19;99715.41;;;-0.65;100.00
8941;BME280;4505;43.406;23.226;2022-12-13T02:45:50;99713.28;;;-0.62;100.00
8941;BME280;4505;43.406;23.226;2022-12-13T02:48:17;99713.81;;;-0.50;100.00
8941;BME280;4505;43.406;23.226;2022-12-13T02:50:45;99714.75;;;-0.43;100.00
8941;BME280;4505;43.406;23.226;2022-12-13T02:53:12;99715.25;;;-0.40;100.00
8941;BME280;4505;43.406;23.226;2022-12-13T02:55:40;99712.81;;;-0.41;100.00
8941;BME280;4505;43.406;23.226;2022-12-13T02:58:10;99708.41;;;-0.33;100.00
8941;BME280;4505;43.406;23.226;2022-12-13T03:00:38;99706.78;;;-0.34;100.00
8941;BME280;4505;43.406;23.226;2022-12-13T03:03:15;99714.28;;;-0.31;100.00
8941;BME280;4505;43.406;23.226;2022-12-13T03:05:46;99695.53;;;-0.18;100.00
8941;BME280;4505;43.406;23.226;2022-12-13T03:08:37;99700.41;;;-0.23;100.00
8941;BME280;4505;43.406;23.226;2022-12-13T03:11:08;99703.38;;;-0.26;100.00
8941;BME280;4505;43.406;23.226;2022-12-13T03:13:45;99700.75;;;-0.18;100.00
8941;BME280;4505;43.406;23.226;2022-12-13T03:16:16;99704.81;;;-0.24;100.00
8941;BME280;4505;43.406;23.226;2022-12-13T03:18:47;99711.19;;;-0.18;100.00
8941;BME280;4505;43.406;23.226;2022-12-13T03:21:15;99706.75;;;-0.26;100.00
8941;BME280;4505;43.406;23.226;2022-12-13T03:23:42;99694.22;;;-0.30;100.00
8941;BME280;4505;43.406;23.226;2022-12-13T03:26:09;99696.66;;;-0.29;100.00
8941;BME280;4505;43.406;23.226;2022-12-13T03:28:36;99700.75;;;-0.18;100.00
8941;BME280;4505;43.406;23.226;2022-12-13T03:31:03;99697.16;;;-0.25;100.00
8941;BME280;4505;43.406;23.226;2022-12-13T03:33:30;99695.34;;;-0.17;100.00
8941;BME280;4505;43.406;23.226;2022-12-13T03:35:58;99708.25;;;-0.23;100.00
8941;BME280;4505;43.406;23.226;2022-12-13T03:38:25;99720.13;;;-0.61;100.00
8941;BME280;4505;43.406;23.226;2022-12-13T03:40:52;99716.06;;;-0.71;100.00
8941;BME280;4505;43.406;23.226;2022-12-13T03:43:19;99720.94;;;-0.76;100.00
8941;BME280;4505;43.406;23.226;2022-12-13T03:45:46;99727.75;;;-0.83;100.00
8941;BME280;4505;43.406;23.226;2022-12-13T03:48:12;99731.84;;;-0.89;100.00
8941;BME280;4505;43.406;23.226;2022-12-13T03:50:39;99732.16;;;-0.84;100.00
8941;BME280;4505;43.406;23.226;2022-12-13T03:53:07;99734.47;;;-0.73;100.00
8941;BME280;4505;43.406;23.226;2022-12-13T03:55:34;99736.91;;;-0.71;100.00
8941;BME280;4505;43.406;23.226;2022-12-13T03:58:00;99734.47;;;-0.81;100.00
8941;BME280;4505;43.406;23.226;2022-12-13T04:00:29;99735.41;;;-0.90;100.00
8941;BME280;4505;43.406;23.226;2022-12-13T04:02:57;99744.34;;;-1.00;100.00
8941;BME280;4505;43.406;23.226;2022-12-13T04:05:23;99749.00;;;-0.54;100.00
8941;BME280;4505;43.406;23.226;2022-12-13T04:07:50;99746.72;;;-0.17;100.00
8941;BME280;4505;43.406;23.226;2022-12-13T04:10:18;99746.00;;;-0.75;100.00
8941;BME280;4505;43.406;23.226;2022-12-13T04:12:44;99741.78;;;-0.84;100.00
8941;BME280;4505;43.406;23.226;2022-12-13T04:15:29;99744.75;;;-0.71;100.00
8941;BME280;4505;43.406;23.226;2022-12-13T04:17:55;99754.25;;;-1.04;100.00
8941;BME280;4505;43.406;23.226;2022-12-13T04:20:22;99762.59;;;-1.00;100.00
8941;BME280;4505;43.406;23.226;2022-12-13T04:22:48;99772.03;;;-0.99;100.00
8941;BME280;4505;43.406;23.226;2022-12-13T04:25:15;99768.72;;;-1.17;100.00
8941;BME280;4505;43.406;23.226;2022-12-13T04:27:43;99766.69;;;-1.31;100.00
8941;BME280;4505;43.406;23.226;2022-12-13T04:30:10;99776.00;;;-1.29;100.00
8941;BME280;4505;43.406;23.226;2022-12-13T04:32:37;99772.63;;;-1.47;100.00
8941;BME280;4505;43.406;23.226;2022-12-13T04:35:03;99774.41;;;-1.48;100.00
8941;BME280;4505;43.406;23.226;2022-12-13T04:37:30;99771.56;;;-1.62;100.00
8941;BME280;4505;43.406;23.226;2022-12-13T04:39:57;99774.63;;;-1.67;100.00
8941;BME280;4505;43.406;23.226;2022-12-13T04:42:23;99791.44;;;-1.61;100.00
8941;BME280;4505;43.406;23.226;2022-12-13T04:44:51;99786.09;;;-1.60;100.00
8941;BME280;4505;43.406;23.226;2022-12-13T04:47:18;99785.53;;;-1.37;100.00
8941;BME280;4505;43.406;23.226;2022-12-13T04:49:45;99797.41;;;-1.43;100.00
8941;BME280;4505;43.406;23.226;2022-12-13T04:52:12;99799.56;;;-1.38;100.00
8941;BME280;4505;43.406;23.226;2022-12-13T04:54:43;99809.66;;;-1.35;100.00
8941;BME280;4505;43.406;23.226;2022-12-13T04:57:10;99806.31;;;-1.20;100.00
8941;BME280;4505;43.406;23.226;2022-12-13T04:59:36;99816.81;;;-0.96;100.00
8941;BME280;4505;43.406;23.226;2022-12-13T05:02:05;99805.19;;;-0.76;100.00
8941;BME280;4505;43.406;23.226;2022-12-13T05:04:32;99813.63;;;-0.82;100.00
8941;BME280;4505;43.406;23.226;2022-12-13T05:06:59;99814.31;;;-0.72;100.00
8941;BME280;4505;43.406;23.226;2022-12-13T05:09:26;99807.75;;;-0.84;100.00
8941;BME280;4505;43.406;23.226;2022-12-13T05:11:53;99806.47;;;-0.72;100.00
8941;BME280;4505;43.406;23.226;2022-12-13T05:14:19;99800.78;;;-0.67;100.00
8941;BME280;4505;43.406;23.226;2022-12-13T05:16:46;99801.56;;;-0.83;100.00
8941;BME280;4505;43.406;23.226;2022-12-13T05:19:14;99800.50;;;-0.56;100.00
8941;BME280;4505;43.406;23.226;2022-12-13T05:21:40;99799.13;;;-1.26;100.00
8941;BME280;4505;43.406;23.226;2022-12-13T05:24:07;99812.63;;;-0.89;100.00
8941;BME280;4505;43.406;23.226;2022-12-13T05:26:34;99804.16;;;-0.91;100.00
8941;BME280;4505;43.406;23.226;2022-12-13T05:29:01;99799.94;;;-1.25;100.00
8941;BME280;4505;43.406;23.226;2022-12-13T05:31:27;99805.72;;;-1.06;100.00
8941;BME280;4505;43.406;23.226;2022-12-13T05:33:54;99799.00;;;-1.16;100.00
8941;BME280;4505;43.406;23.226;2022-12-13T05:36:25;99806.88;;;-1.00;100.00
8941;BME280;4505;43.406;23.226;2022-12-13T05:38:52;99810.56;;;-1.19;100.00
8941;BME280;4505;43.406;23.226;2022-12-13T05:41:19;99818.72;;;-1.06;100.00
8941;BME280;4505;43.406;23.226;2022-12-13T05:43:47;99820.53;;;-1.06;100.00
8941;BME280;4505;43.406;23.226;2022-12-13T05:46:28;99825.31;;;-0.94;100.00
8941;BME280;4505;43.406;23.226;2022-12-13T05:48:54;99829.88;;;-1.29;100.00
8941;BME280;4505;43.406;23.226;2022-12-13T05:51:21;99834.06;;;-1.36;100.00
8941;BME280;4505;43.406;23.226;2022-12-13T05:53:49;99844.88;;;-1.23;100.00
8941;BME280;4505;43.406;23.226;2022-12-13T05:56:15;99847.72;;;-1.09;100.00
8941;BME280;4505;43.406;23.226;2022-12-13T05:58:42;99844.84;;;-0.98;100.00
8941;BME280;4505;43.406;23.226;2022-12-13T06:01:09;99852.44;;;-1.12;100.00
8941;BME280;4505;43.406;23.226;2022-12-13T06:03:36;99853.88;;;-1.18;100.00
8941;BME280;4505;43.406;23.226;2022-12-13T06:06:03;99861.16;;;-1.21;100.00
8941;BME280;4505;43.406;23.226;2022-12-13T06:08:30;99861.34;;;-1.49;100.00
8941;BME280;4505;43.406;23.226;2022-12-13T06:10:59;99857.91;;;-1.49;100.00
8941;BME280;4505;43.406;23.226;2022-12-13T06:13:26;99857.78;;;-1.14;100.00
8941;BME280;4505;43.406;23.226;2022-12-13T06:15:53;99860.66;;;-0.91;100.00
8941;BME280;4505;43.406;23.226;2022-12-13T06:18:19;99850.88;;;-0.97;100.00
8941;BME280;4505;43.406;23.226;2022-12-13T06:20:54;99858.47;;;-0.70;100.00
8941;BME280;4505;43.406;23.226;2022-12-13T06:23:23;99855.59;;;-0.93;100.00
8941;BME280;4505;43.406;23.226;2022-12-13T06:25:49;99850.91;;;-0.89;100.00
8941;BME280;4505;43.406;23.226;2022-12-13T06:28:17;99857.72;;;-0.96;100.00
8941;BME280;4505;43.406;23.226;2022-12-13T06:30:44;99859.22;;;-0.86;100.00
8941;BME280;4505;43.406;23.226;2022-12-13T06:33:11;99859.72;;;-0.90;100.00
8941;BME280;4505;43.406;23.226;2022-12-13T06:35:37;99867.72;;;-0.84;100.00
8941;BME280;4505;43.406;23.226;2022-12-13T06:38:04;99866.56;;;-0.81;100.00
8941;BME280;4505;43.406;23.226;2022-12-13T06:40:31;99868.28;;;-0.64;100.00
8941;BME280;4505;43.406;23.226;2022-12-13T06:42:57;99867.91;;;-0.77;100.00
8941;BME280;4505;43.406;23.226;2022-12-13T06:45:26;99866.47;;;-1.05;100.00
8941;BME280;4505;43.406;23.226;2022-12-13T06:47:53;99869.47;;;-0.92;100.00
8941;BME280;4505;43.406;23.226;2022-12-13T06:50:21;99868.72;;;-0.77;100.00
8941;BME280;4505;43.406;23.226;2022-12-13T06:52:47;99884.03;;;-0.74;100.00
8941;BME280;4505;43.406;23.226;2022-12-13T06:55:14;99876.22;;;-0.74;100.00
8941;BME280;4505;43.406;23.226;2022-12-13T06:57:41;99882.75;;;-0.12;100.00
8941;BME280;4505;43.406;23.226;2022-12-13T07:00:18;99884.91;;;-0.57;100.00
8941;BME280;4505;43.406;23.226;2022-12-13T07:02:51;99889.72;;;-0.29;100.00
8941;BME280;4505;43.406;23.226;2022-12-13T07:05:18;99898.44;;;0.04;100.00
8941;BME280;4505;43.406;23.226;2022-12-13T07:07:45;99898.13;;;0.07;100.00
8941;BME280;4505;43.406;23.226;2022-12-13T07:10:12;99898.53;;;-0.38;100.00
8941;BME280;4505;43.406;23.226;2022-12-13T07:12:38;99892.88;;;-0.09;100.00
8941;BME280;4505;43.406;23.226;2022-12-13T07:15:05;99887.50;;;0.17;100.00
8941;BME280;4505;43.406;23.226;2022-12-13T07:17:33;99890.97;;;0.33;100.00
8941;BME280;4505;43.406;23.226;2022-12-13T07:20:01;99899.91;;;0.23;100.00
8941;BME280;4505;43.406;23.226;2022-12-13T07:22:28;99893.91;;;0.14;100.00
8941;BME280;4505;43.406;23.226;2022-12-13T07:24:55;99893.03;;;-0.11;100.00
8941;BME280;4505;43.406;23.226;2022-12-13T07:27:22;99894.97;;;-0.13;100.00
8941;BME280;4505;43.406;23.226;2022-12-13T07:29:48;99900.91;;;0.30;100.00
8941;BME280;4505;43.406;23.226;2022-12-13T07:32:15;99894.69;;;0.23;100.00
8941;BME280;4505;43.406;23.226;2022-12-13T07:34:42;99896.50;;;0.14;100.00
8941;BME280;4505;43.406;23.226;2022-12-13T07:37:10;99901.91;;;0.37;100.00
8941;BME280;4505;43.406;23.226;2022-12-13T07:39:36;99905.47;;;0.36;100.00
8941;BME280;4505;43.406;23.226;2022-12-13T07:42:03;99916.09;;;0.42;100.00
8941;BME280;4505;43.406;23.226;2022-12-13T07:44:29;99913.63;;;0.25;100.00
8941;BME280;4505;43.406;23.226;2022-12-13T07:46:56;99913.47;;;0.34;100.00
8941;BME280;4505;43.406;23.226;2022-12-13T07:49:23;99915.09;;;0.83;100.00
8941;BME280;4505;43.406;23.226;2022-12-13T07:51:50;99919.34;;;0.44;100.00
8941;BME280;4505;43.406;23.226;2022-12-13T07:54:17;99911.53;;;0.44;100.00
8941;BME280;4505;43.406;23.226;2022-12-13T07:56:44;99915.25;;;-0.56;100.00
8941;BME280;4505;43.406;23.226;2022-12-13T07:59:11;99924.53;;;-0.04;100.00
8941;BME280;4505;43.406;23.226;2022-12-13T08:01:38;99926.53;;;-0.48;100.00
8941;BME280;4505;43.406;23.226;2022-12-13T08:04:06;99925.47;;;-0.21;100.00
8941;BME280;4505;43.406;23.226;2022-12-13T08:06:40;99929.31;;;0.33;100.00
8941;BME280;4505;43.406;23.226;2022-12-13T08:09:07;99931.44;;;0.45;100.00
8941;BME280;4505;43.406;23.226;2022-12-13T08:11:38;99936.66;;;0.77;100.00
8941;BME280;4505;43.406;23.226;2022-12-13T08:14:18;99926.22;;;1.32;100.00
8941;BME280;4505;43.406;23.226;2022-12-13T08:16:45;99921.34;;;1.29;100.00
8941;BME280;4505;43.406;23.226;2022-12-13T08:19:12;99923.22;;;1.51;100.00
8941;BME280;4505;43.406;23.226;2022-12-13T08:21:39;99922.44;;;1.42;100.00
8941;BME280;4505;43.406;23.226;2022-12-13T08:24:06;99919.94;;;1.57;100.00
8941;BME280;4505;43.406;23.226;2022-12-13T08:26:33;99919.38;;;1.70;100.00
8941;BME280;4505;43.406;23.226;2022-12-13T08:29:01;99918.38;;;1.32;100.00
8941;BME280;4505;43.406;23.226;2022-12-13T08:31:28;99912.13;;;0.94;100.00
8941;BME280;4505;43.406;23.226;2022-12-13T08:33:54;99926.13;;;1.09;100.00
8941;BME280;4505;43.406;23.226;2022-12-13T08:36:21;99930.91;;;1.06;100.00
8941;BME280;4505;43.406;23.226;2022-12-13T08:38:58;99926.25;;;1.24;100.00
8941;BME280;4505;43.406;23.226;2022-12-13T08:41:27;99930.13;;;0.57;100.00
8941;BME280;4505;43.406;23.226;2022-12-13T08:43:53;99931.09;;;0.88;100.00
8941;BME280;4505;43.406;23.226;2022-12-13T08:46:21;99923.34;;;1.58;100.00
8941;BME280;4505;43.406;23.226;2022-12-13T08:48:48;99909.34;;;1.51;100.00
8941;BME280;4505;43.406;23.226;2022-12-13T08:51:15;99910.50;;;0.85;100.00
8941;BME280;4505;43.406;23.226;2022-12-13T08:53:41;99914.59;;;1.42;100.00
8941;BME280;4505;43.406;23.226;2022-12-13T08:56:09;99907.09;;;2.01;100.00
8941;BME280;4505;43.406;23.226;2022-12-13T08:58:36;99903.56;;;2.39;100.00
8941;BME280;4505;43.406;23.226;2022-12-13T09:01:04;99903.81;;;1.76;100.00
8941;BME280;4505;43.406;23.226;2022-12-13T09:03:32;99896.16;;;2.42;100.00
8941;BME280;4505;43.406;23.226;2022-12-13T09:06:04;99895.13;;;1.76;100.00
8941;BME280;4505;43.406;23.226;2022-12-13T09:08:31;99885.75;;;2.34;100.00
8941;BME280;4505;43.406;23.226;2022-12-13T09:10:58;99885.84;;;2.55;100.00
8941;BME280;4505;43.406;23.226;2022-12-13T09:13:25;99886.28;;;2.96;100.00
8941;BME280;4505;43.406;23.226;2022-12-13T09:16:06;99876.41;;;2.32;100.00
8941;BME280;4505;43.406;23.226;2022-12-13T09:18:35;99880.22;;;2.29;100.00
8941;BME280;4505;43.406;23.226;2022-12-13T09:21:04;99867.66;;;2.91;100.00
8941;BME280;4505;43.406;23.226;2022-12-13T09:23:31;99872.25;;;2.60;100.00
8941;BME280;4505;43.406;23.226;2022-12-13T09:25:58;99878.44;;;3.11;100.00
8941;BME280;4505;43.406;23.226;2022-12-13T09:28:25;99876.44;;;2.98;100.00
8941;BME280;4505;43.406;23.226;2022-12-13T09:30:52;99866.22;;;2.88;100.00
8941;BME280;4505;43.406;23.226;2022-12-13T09:33:19;99865.91;;;2.54;100.00
8941;BME280;4505;43.406;23.226;2022-12-13T09:35:48;99862.00;;;2.50;100.00
8941;BME280;4505;43.406;23.226;2022-12-13T09:38:15;99861.81;;;2.15;100.00
8941;BME280;4505;43.406;23.226;2022-12-13T09:40:42;99862.50;;;2.83;100.00
8941;BME280;4505;43.406;23.226;2022-12-13T09:43:25;99866.81;;;3.34;100.00
8941;BME280;4505;43.406;23.226;2022-12-13T09:45:53;99871.56;;;3.39;100.00
8941;BME280;4505;43.406;23.226;2022-12-13T09:48:20;99864.69;;;3.09;100.00
8941;BME280;4505;43.406;23.226;2022-12-13T09:50:49;99858.53;;;3.16;100.00
8941;BME280;4505;43.406;23.226;2022-12-13T09:53:17;99861.03;;;3.74;100.00
8941;BME280;4505;43.406;23.226;2022-12-13T09:55:46;99855.59;;;3.76;100.00
8941;BME280;4505;43.406;23.226;2022-12-13T09:58:14;99867.50;;;3.72;100.00
8941;BME280;4505;43.406;23.226;2022-12-13T10:00:46;99854.53;;;2.91;100.00
8941;BME280;4505;43.406;23.226;2022-12-13T10:03:13;99848.47;;;3.34;100.00
8941;BME280;4505;43.406;23.226;2022-12-13T10:05:43;99848.03;;;3.16;100.00
8941;BME280;4505;43.406;23.226;2022-12-13T10:08:12;99852.19;;;3.11;100.00
8941;BME280;4505;43.406;23.226;2022-12-13T10:10:40;99851.50;;;3.88;100.00
8941;BME280;4505;43.406;23.226;2022-12-13T10:13:09;99841.38;;;4.55;100.00
8941;BME280;4505;43.406;23.226;2022-12-13T10:15:38;99840.53;;;4.75;100.00
8941;BME280;4505;43.406;23.226;2022-12-13T10:18:07;99832.22;;;5.06;100.00
8941;BME280;4505;43.406;23.226;2022-12-13T10:20:36;99839.22;;;3.38;100.00
8941;BME280;4505;43.406;23.226;2022-12-13T10:23:02;99847.06;;;3.88;100.00
8941;BME280;4505;43.406;23.226;2022-12-13T10:25:44;99840.13;;;4.23;100.00
8941;BME280;4505;43.406;23.226;2022-12-13T10:28:23;99817.47;;;3.59;100.00
8941;BME280;4505;43.406;23.226;2022-12-13T10:30:50;99819.75;;;2.68;100.00
8941;BME280;4505;43.406;23.226;2022-12-13T10:33:24;99804.91;;;2.89;100.00
8941;BME280;4505;43.406;23.226;2022-12-13T10:36:05;99797.75;;;2.98;100.00
8941;BME280;4505;43.406;23.226;2022-12-13T10:38:46;99794.28;;;3.62;100.00
8941;BME280;4505;43.406;23.226;2022-12-13T10:41:28;99799.59;;;4.38;100.00
8941;BME280;4505;43.406;23.226;2022-12-13T10:44:16;99803.03;;;3.69;100.00
8941;BME280;4505;43.406;23.226;2022-12-13T10:46:46;99804.31;;;3.23;100.00
8941;BME280;4505;43.406;23.226;2022-12-13T10:49:14;99799.63;;;3.04;100.00
8941;BME280;4505;43.406;23.226;2022-12-13T10:51:42;99785.25;;;3.50;100.00
8941;BME280;4505;43.406;23.226;2022-12-13T10:54:13;99784.94;;;3.60;100.00
8941;BME280;4505;43.406;23.226;2022-12-13T10:56:43;99781.44;;;3.53;100.00
8941;BME280;4505;43.406;23.226;2022-12-13T10:59:26;99766.13;;;4.54;100.00
8941;BME280;4505;43.406;23.226;2022-12-13T11:01:56;99757.91;;;4.63;100.00
8941;BME280;4505;43.406;23.226;2022-12-13T11:04:24;99766.25;;;4.73;100.00
8941;BME280;4505;43.406;23.226;2022-12-13T11:06:56;99761.03;;;4.80;100.00
8941;BME280;4505;43.406;23.226;2022-12-13T11:09:23;99770.47;;;4.40;100.00
8941;BME280;4505;43.406;23.226;2022-12-13T11:11:52;99771.94;;;3.73;100.00
8941;BME280;4505;43.406;23.226;2022-12-13T11:14:19;99768.22;;;3.82;100.00
8941;BME280;4505;43.406;23.226;2022-12-13T11:16:48;99753.72;;;4.13;100.00
8941;BME280;4505;43.406;23.226;2022-12-13T11:19:17;99749.41;;;5.08;100.00
8941;BME280;4505;43.406;23.226;2022-12-13T11:21:46;99742.56;;;5.20;100.00
8941;BME280;4505;43.406;23.226;2022-12-13T11:24:16;99741.09;;;4.58;100.00
8941;BME280;4505;43.406;23.226;2022-12-13T11:26:45;99746.88;;;5.34;100.00
8941;BME280;4505;43.406;23.226;2022-12-13T11:29:27;99744.88;;;5.49;100.00
8941;BME280;4505;43.406;23.226;2022-12-13T11:31:57;99729.16;;;6.08;100.00
8941;BME280;4505;43.406;23.226;2022-12-13T11:34:29;99738.84;;;5.75;100.00
8941;BME280;4505;43.406;23.226;2022-12-13T11:37:00;99728.06;;;6.61;100.00
8941;BME280;4505;43.406;23.226;2022-12-13T11:39:31;99719.44;;;5.82;100.00
8941;BME280;4505;43.406;23.226;2022-12-13T11:42:03;99730.97;;;6.21;100.00
8941;BME280;4505;43.406;23.226;2022-12-13T11:44:37;99731.75;;;5.75;100.00
8941;BME280;4505;43.406;23.226;2022-12-13T11:47:09;99733.56;;;4.95;100.00
8941;BME280;4505;43.406;23.226;2022-12-13T11:49:39;99735.84;;;6.30;100.00
8941;BME280;4505;43.406;23.226;2022-12-13T11:52:10;99729.69;;;6.56;88.80
8941;BME280;4505;43.406;23.226;2022-12-13T11:54:42;99726.44;;;5.49;88.81
8941;BME280;4505;43.406;23.226;2022-12-13T11:57:12;99727.34;;;4.62;100.00
8941;BME280;4505;43.406;23.226;2022-12-13T11:59:46;99727.88;;;4.92;100.00
8941;BME280;4505;43.406;23.226;2022-12-13T12:02:18;99728.00;;;5.24;100.00
8941;BME280;4505;43.406;23.226;2022-12-13T12:04:58;99726.25;;;5.51;100.00
8941;BME280;4505;43.406;23.226;2022-12-13T12:07:26;99723.69;;;4.29;100.00
8941;BME280;4505;43.406;23.226;2022-12-13T12:09:56;99717.84;;;4.68;100.00
8941;BME280;4505;43.406;23.226;2022-12-13T12:12:29;99713.06;;;4.09;100.00
8941;BME280;4505;43.406;23.226;2022-12-13T12:14:59;99711.00;;;5.27;100.00
8941;BME280;4505;43.406;23.226;2022-12-13T12:17:29;99717.72;;;5.42;100.00
8941;BME280;4505;43.406;23.226;2022-12-13T12:19:58;99724.22;;;4.80;90.47
8941;BME280;4505;43.406;23.226;2022-12-13T12:22:29;99716.28;;;5.40;91.12
8941;BME280;4505;43.406;23.226;2022-12-13T12:25:13;99709.47;;;5.78;100.00
8941;BME280;4505;43.406;23.226;2022-12-13T12:27:44;99705.19;;;5.64;96.53
8941;BME280;4505;43.406;23.226;2022-12-13T12:30:18;99702.16;;;5.47;94.08
8941;BME280;4505;43.406;23.226;2022-12-13T12:32:46;99697.91;;;4.80;85.79
8941;BME280;4505;43.406;23.226;2022-12-13T12:35:17;99717.25;;;5.13;93.44
8941;BME280;4505;43.406;23.226;2022-12-13T12:37:51;99717.91;;;5.34;82.19
8941;BME280;4505;43.406;23.226;2022-12-13T12:40:34;99715.56;;;5.85;87.29
8941;BME280;4505;43.406;23.226;2022-12-13T12:43:05;99709.66;;;6.35;85.07
8941;BME280;4505;43.406;23.226;2022-12-13T12:45:40;99712.50;;;5.75;75.14
8941;BME280;4505;43.406;23.226;2022-12-13T12:48:14;99715.69;;;4.09;84.31
8941;BME280;4505;43.406;23.226;2022-12-13T12:50:46;99713.84;;;3.82;99.76
8941;BME280;4505;43.406;23.226;2022-12-13T12:53:25;99720.50;;;3.78;100.00
8941;BME280;4505;43.406;23.226;2022-12-13T12:55:57;99724.63;;;4.83;100.00
8941;BME280;4505;43.406;23.226;2022-12-13T12:58:29;99726.41;;;5.30;100.00
8941;BME280;4505;43.406;23.226;2022-12-13T13:01:13;99719.91;;;5.26;92.75
8941;BME280;4505;43.406;23.226;2022-12-13T13:03:44;99722.72;;;4.71;91.38
8941;BME280;4505;43.406;23.226;2022-12-13T13:06:11;99718.97;;;4.86;87.28
8941;BME280;4505;43.406;23.226;2022-12-13T13:08:40;99727.09;;;4.51;85.33
8941;BME280;4505;43.406;23.226;2022-12-13T13:11:08;99727.06;;;4.85;100.00
8941;BME280;4505;43.406;23.226;2022-12-13T13:13:38;99726.81;;;5.33;90.19
8941;BME280;4505;43.406;23.226;2022-12-13T13:16:31;99726.69;;;4.54;77.01
8941;BME280;4505;43.406;23.226;2022-12-13T13:19:01;99735.19;;;4.96;88.05
8941;BME280;4505;43.406;23.226;2022-12-13T13:21:45;99754.41;;;4.56;96.29
8941;BME280;4505;43.406;23.226;2022-12-13T13:24:16;99760.84;;;4.81;100.00